ATH weather

Eleftherios Venizelos International Airport
Athens, Attica, Greece

Public forecast

Using degrees Celsius for public forecast. Weather courtesy of forecast.io.

Current aviation weather report (METAR) for Eleftherios Venizelos International Airport

Retrieved 2019/11/14 17:20 UTC (38 minutes ago):

LGAV 141720Z 25002KT 9999 FEW020TCU 16/13 Q1012 NOSIG

Aviation forecast (TAF) for Eleftherios Venizelos International Airport

Retrieved 2019/11/14 12:12 UTC (6 hours ago):

TAF TAF LGAV 141100Z 1412/1512 VRB03KT 9999 FEW025 SCT070